createdAt,value
2019-02-08T00:00:45.846Z,7.12
2019-02-08T00:03:15.181Z,7.92
2019-02-08T00:05:44.033Z,5.50
2019-02-08T00:08:13.404Z,8.50
2019-02-08T00:10:42.444Z,4.75
2019-02-08T00:13:14.005Z,11.60
2019-02-08T00:15:42.951Z,6.67
2019-02-08T00:18:13.825Z,10.88
2019-02-08T00:20:44.060Z,8.68
2019-02-08T00:23:26.172Z,11.50
2019-02-08T00:25:49.911Z,6.80
2019-02-08T00:28:20.720Z,7.60
2019-02-08T00:30:50.144Z,7.97
2019-02-08T00:33:19.708Z,6.60
2019-02-08T00:35:49.048Z,6.20
2019-02-08T00:38:18.417Z,5.03
2019-02-08T00:40:48.490Z,5.80
2019-02-08T00:43:18.450Z,9.68
2019-02-08T00:45:48.796Z,6.90
2019-02-08T00:48:18.028Z,5.15
2019-02-08T00:50:47.152Z,6.75
2019-02-08T00:53:17.204Z,7.33
2019-02-08T00:55:45.980Z,10.48
2019-02-08T00:58:20.119Z,6.10
2019-02-08T01:00:49.289Z,5.85
2019-02-08T01:03:20.355Z,6.03
2019-02-08T01:05:50.402Z,8.83
2019-02-08T01:08:19.999Z,7.62
2019-02-08T01:10:49.836Z,9.75
2019-02-08T01:13:19.160Z,5.85
2019-02-08T01:15:48.590Z,9.53
2019-02-08T01:18:20.411Z,5.55
2019-02-08T01:20:50.529Z,8.33
2019-02-08T01:23:20.862Z,5.80
2019-02-08T01:25:50.157Z,6.35
2019-02-08T01:28:21.168Z,6.20
2019-02-08T01:30:50.506Z,7.70
2019-02-08T01:33:23.511Z,6.42
2019-02-08T01:35:55.102Z,6.60
2019-02-08T01:38:29.146Z,8.53
2019-02-08T01:40:59.927Z,6.87
2019-02-08T01:43:30.801Z,6.20
2019-02-08T01:46:02.363Z,7.45
2019-02-08T01:48:31.806Z,7.25
2019-02-08T01:51:01.405Z,8.25
2019-02-08T01:53:32.484Z,5.45
2019-02-08T01:56:02.692Z,4.90
2019-02-08T01:58:33.879Z,6.80
2019-02-08T02:01:03.187Z,5.83
2019-02-08T02:03:34.716Z,4.95
2019-02-08T02:06:06.442Z,3.95
2019-02-08T02:08:37.532Z,6.62
2019-02-08T02:11:11.882Z,8.23
2019-02-08T02:13:41.331Z,6.72
2019-02-08T02:16:19.602Z,6.75
2019-02-08T02:18:49.487Z,9.00
2019-02-08T02:21:18.216Z,6.03
2019-02-08T02:23:55.885Z,7.85
2019-02-08T02:29:08.949Z,5.33
2019-02-08T02:31:38.521Z,4.87
2019-02-08T02:34:09.039Z,6.37
2019-02-08T02:36:38.144Z,6.22
2019-02-08T02:39:08.485Z,6.37
2019-02-08T02:41:37.587Z,4.60
2019-02-08T02:44:06.797Z,6.70
2019-02-08T02:46:36.415Z,6.05
2019-02-08T02:49:06.188Z,8.35
2019-02-08T02:51:37.558Z,6.70
2019-02-08T02:54:11.978Z,10.23
2019-02-08T02:56:46.241Z,6.85
2019-02-08T02:59:25.448Z,5.03
2019-02-08T03:01:54.915Z,7.60
2019-02-08T03:04:27.061Z,5.60
2019-02-08T03:06:56.714Z,5.80
2019-02-08T03:09:28.262Z,7.12
2019-02-08T03:12:07.461Z,6.00
2019-02-08T03:14:39.203Z,5.42
2019-02-08T03:17:08.763Z,7.45
2019-02-08T03:19:39.264Z,5.92
2019-02-08T03:22:09.887Z,7.35
2019-02-08T03:24:42.823Z,7.37
2019-02-08T03:27:12.889Z,5.85
2019-02-08T03:29:42.702Z,7.97
2019-02-08T03:32:14.143Z,6.65
2019-02-08T03:34:43.278Z,8.05
2019-02-08T03:37:13.609Z,9.70
2019-02-08T03:39:43.201Z,7.75
2019-02-08T03:42:12.309Z,6.60
2019-02-08T03:44:41.459Z,9.15
2019-02-08T03:47:10.108Z,7.40
2019-02-08T03:49:39.786Z,7.97
2019-02-08T03:52:08.518Z,8.30
2019-02-08T03:54:37.367Z,8.53
2019-02-08T03:57:06.655Z,8.05
2019-02-08T03:59:36.153Z,7.20
2019-02-08T04:02:05.853Z,6.12
2019-02-08T04:04:35.165Z,5.90
2019-02-08T04:07:04.522Z,9.43
2019-02-08T04:09:33.594Z,7.05
2019-02-08T04:12:02.966Z,8.30
2019-02-08T04:14:32.187Z,7.58
2019-02-08T04:17:01.443Z,7.65
2019-02-08T04:19:30.869Z,5.80
2019-02-08T04:21:59.593Z,7.70
2019-02-08T04:24:29.982Z,9.00
2019-02-08T04:26:58.487Z,6.30
2019-02-08T04:29:27.319Z,10.75
2019-02-08T04:31:56.089Z,7.67
2019-02-08T04:34:24.831Z,9.13
2019-02-08T04:36:53.473Z,9.23
2019-02-08T04:39:23.153Z,8.40
2019-02-08T04:41:52.772Z,7.17
2019-02-08T04:44:21.572Z,8.00
2019-02-08T04:46:50.654Z,7.17
2019-02-08T04:49:20.135Z,9.48
2019-02-08T04:51:49.353Z,7.92
2019-02-08T04:54:18.295Z,10.53
2019-02-08T04:56:47.594Z,8.10
2019-02-08T04:59:16.942Z,10.53
2019-02-08T05:01:45.878Z,13.20
2019-02-08T05:04:14.606Z,10.58
2019-02-08T05:06:43.272Z,8.05
2019-02-08T05:09:12.093Z,10.45
2019-02-08T05:11:43.753Z,8.88
2019-02-08T05:14:11.683Z,8.65
2019-02-08T05:16:43.559Z,8.75
2019-02-08T05:19:12.572Z,8.90
2019-02-08T05:21:41.580Z,9.48
2019-02-08T05:24:10.510Z,9.60
2019-02-08T05:26:39.149Z,7.53
2019-02-08T05:29:08.738Z,7.42
2019-02-08T05:31:38.458Z,9.15
2019-02-08T05:34:07.851Z,10.28
2019-02-08T05:36:37.628Z,10.20
2019-02-08T05:39:09.051Z,8.25
2019-02-08T05:41:38.206Z,10.20
2019-02-08T05:44:07.147Z,9.60
2019-02-08T05:46:36.083Z,10.80
2019-02-08T05:49:05.122Z,13.22
2019-02-08T05:51:34.019Z,8.10
2019-02-08T05:54:03.546Z,10.53
2019-02-08T05:56:32.769Z,7.45
2019-02-08T05:59:02.465Z,11.00
2019-02-08T06:01:31.403Z,8.38
2019-02-08T06:04:00.094Z,9.65
2019-02-08T06:06:29.035Z,9.73
2019-02-08T06:08:57.849Z,8.83
2019-02-08T06:11:27.564Z,11.38
2019-02-08T06:13:56.970Z,9.18
2019-02-08T06:16:26.430Z,10.50
2019-02-08T06:18:55.651Z,9.88
2019-02-08T06:21:25.042Z,10.45
2019-02-08T06:23:54.730Z,11.43
2019-02-08T06:26:24.067Z,9.48
2019-02-08T06:28:53.381Z,14.73
2019-02-08T06:31:22.654Z,10.63
2019-02-08T06:33:51.850Z,11.63
2019-02-08T06:36:21.213Z,9.40
2019-02-08T06:38:50.675Z,8.48
2019-02-08T06:41:20.023Z,9.75
2019-02-08T06:43:49.821Z,8.83
2019-02-08T06:46:19.317Z,10.55
2019-02-08T06:48:48.824Z,9.33
2019-02-08T06:51:17.680Z,9.23
2019-02-08T06:53:46.965Z,8.58
2019-02-08T06:56:17.813Z,8.08
2019-02-08T06:58:48.512Z,10.30
2019-02-08T07:01:28.473Z,10.05
2019-02-08T07:04:05.188Z,10.50
2019-02-08T07:06:36.353Z,10.35
2019-02-08T07:09:12.560Z,8.50
2019-02-08T07:11:43.457Z,8.20
2019-02-08T07:14:27.082Z,11.85
2019-02-08T07:17:07.476Z,10.30
2019-02-08T07:19:38.197Z,11.05
2019-02-08T07:22:24.287Z,11.53
2019-02-08T07:25:00.653Z,11.15
2019-02-08T07:27:37.708Z,9.05
2019-02-08T07:30:14.268Z,9.25
2019-02-08T07:32:51.681Z,10.90
2019-02-08T07:35:22.607Z,10.18
2019-02-08T07:37:53.236Z,11.95
2019-02-08T07:40:26.880Z,11.10
2019-02-08T07:43:04.895Z,11.28
2019-02-08T07:45:37.767Z,15.48
2019-02-08T07:48:15.832Z,11.33
2019-02-08T07:50:52.391Z,10.90
2019-02-08T07:53:38.391Z,11.03
2019-02-08T07:56:12.659Z,11.40
2019-02-08T07:58:47.921Z,11.48
2019-02-08T08:01:28.149Z,11.05
2019-02-08T08:04:08.609Z,10.15
2019-02-08T08:06:40.462Z,12.60
2019-02-08T08:09:11.797Z,12.18
2019-02-08T08:11:51.690Z,11.43
2019-02-08T08:14:39.016Z,11.18
2019-02-08T08:17:18.965Z,13.43
2019-02-08T08:19:52.813Z,13.88
2019-02-08T08:22:26.723Z,13.43
2019-02-08T08:25:08.277Z,13.62
2019-02-08T08:27:55.429Z,12.65
2019-02-08T08:30:36.927Z,12.35
2019-02-08T08:33:11.277Z,15.23
2019-02-08T08:36:01.723Z,14.45
2019-02-08T08:38:55.349Z,12.07
2019-02-08T08:41:53.655Z,14.20
2019-02-08T08:45:02.513Z,12.13
2019-02-08T08:47:35.008Z,9.30
2019-02-08T08:50:26.398Z,10.05
2019-02-08T08:53:14.973Z,9.48
2019-02-08T08:56:06.884Z,12.58
2019-02-08T08:58:47.474Z,15.28
2019-02-08T09:01:28.721Z,9.70
2019-02-08T09:04:17.102Z,9.70
2019-02-08T09:07:16.108Z,12.07
2019-02-08T09:09:53.422Z,10.40
2019-02-08T09:12:31.740Z,13.65
2019-02-08T09:15:12.770Z,9.73
2019-02-08T09:17:51.609Z,12.23
2019-02-08T09:20:35.987Z,10.85
2019-02-08T09:23:13.975Z,12.70
2019-02-08T09:26:06.447Z,10.43
2019-02-08T09:28:42.329Z,13.53
2019-02-08T09:31:32.835Z,20.30
2019-02-08T09:34:26.073Z,31.33
2019-02-08T09:37:14.842Z,16.73
2019-02-08T09:39:55.936Z,13.48
2019-02-08T09:42:53.141Z,13.88
2019-02-08T09:45:41.985Z,12.50
2019-02-08T09:48:30.024Z,14.75
2019-02-08T09:51:29.573Z,12.82
2019-02-08T09:54:36.592Z,13.45
2019-02-08T09:57:14.423Z,13.10
2019-02-08T10:00:05.249Z,9.88
2019-02-08T10:02:46.757Z,13.13
2019-02-08T10:05:38.355Z,10.72
2019-02-08T10:08:28.462Z,9.78
2019-02-08T10:11:28.012Z,12.58
2019-02-08T10:14:28.919Z,13.83
2019-02-08T10:17:35.163Z,13.45
2019-02-08T10:20:15.683Z,10.43
2019-02-08T10:22:53.938Z,12.82
2019-02-08T10:25:26.412Z,16.12
2019-02-08T10:28:27.556Z,14.15
2019-02-08T10:31:08.695Z,13.98
2019-02-08T10:34:02.983Z,13.38
2019-02-08T10:36:51.917Z,10.85
2019-02-08T10:39:46.802Z,11.05
2019-02-08T10:42:54.000Z,12.25
2019-02-08T10:45:29.306Z,12.23
2019-02-08T10:48:06.814Z,15.68
2019-02-08T10:50:51.409Z,12.55
2019-02-08T10:53:26.666Z,12.18
2019-02-08T10:56:16.258Z,13.43
2019-02-08T10:59:04.024Z,12.63
2019-02-08T11:01:57.972Z,13.30
2019-02-08T11:04:50.147Z,13.25
2019-02-08T11:07:47.989Z,11.85
2019-02-08T11:10:35.572Z,14.85
2019-02-08T11:13:25.768Z,13.10
2019-02-08T11:16:18.232Z,11.15
2019-02-08T11:19:17.697Z,15.75
2019-02-08T11:21:47.967Z,11.80
2019-02-08T11:24:19.105Z,13.32
2019-02-08T11:26:48.282Z,12.33
2019-02-08T11:29:17.997Z,13.08
2019-02-08T11:31:47.775Z,12.58
2019-02-08T11:34:17.386Z,13.10
2019-02-08T11:36:46.554Z,12.85
2019-02-08T11:39:16.703Z,14.05
2019-02-08T11:41:46.828Z,11.20
2019-02-08T11:44:16.084Z,12.65
2019-02-08T11:46:45.281Z,13.72
2019-02-08T11:49:14.482Z,12.18
2019-02-08T11:51:43.690Z,11.60
2019-02-08T11:54:13.262Z,12.95
2019-02-08T11:56:42.389Z,12.07
2019-02-08T11:59:11.593Z,12.40
2019-02-08T12:01:41.553Z,11.15
2019-02-08T12:04:10.466Z,14.58
2019-02-08T12:06:40.396Z,10.10
2019-02-08T12:09:11.196Z,10.90
2019-02-08T12:11:40.363Z,14.95
2019-02-08T12:14:09.880Z,14.90
2019-02-08T12:16:38.976Z,13.25
2019-02-08T12:19:08.297Z,12.90
2019-02-08T12:21:37.580Z,15.45
2019-02-08T12:24:07.325Z,11.68
2019-02-08T12:26:38.040Z,11.10
2019-02-08T12:29:08.645Z,14.53
2019-02-08T12:31:37.866Z,13.43
2019-02-08T12:34:06.976Z,14.55
2019-02-08T12:36:36.347Z,13.15
2019-02-08T12:39:09.073Z,18.00
2019-02-08T12:41:37.932Z,13.90
2019-02-08T12:44:07.379Z,10.75
2019-02-08T12:46:37.474Z,12.88
2019-02-08T12:49:06.772Z,13.50
2019-02-08T12:51:36.336Z,15.78
2019-02-08T12:54:05.880Z,21.50
2019-02-08T12:56:34.876Z,13.60
2019-02-08T12:59:04.587Z,17.23
2019-02-08T13:01:37.684Z,15.13
2019-02-08T13:04:05.087Z,16.27
2019-02-08T13:06:34.386Z,15.85
2019-02-08T13:09:05.225Z,17.00
2019-02-08T13:11:34.573Z,18.00
2019-02-08T13:14:03.867Z,15.10
2019-02-08T13:16:33.965Z,14.25
2019-02-08T13:19:03.425Z,15.40
2019-02-08T13:21:32.592Z,14.23
2019-02-08T13:24:01.358Z,15.78
2019-02-08T13:26:30.562Z,12.98
2019-02-08T13:28:59.357Z,13.75
2019-02-08T13:31:29.199Z,15.60
2019-02-08T13:34:00.011Z,14.00
2019-02-08T13:36:29.067Z,11.75
2019-02-08T13:38:58.373Z,12.33
2019-02-08T13:41:27.710Z,11.80
2019-02-08T13:43:56.978Z,15.50
2019-02-08T13:46:26.426Z,12.40
2019-02-08T13:48:55.718Z,17.12
2019-02-08T13:51:24.974Z,13.40
2019-02-08T13:53:54.349Z,12.13
2019-02-08T13:56:23.613Z,13.68
2019-02-08T13:58:52.847Z,18.17
2019-02-08T14:01:22.034Z,14.20
2019-02-08T14:03:51.276Z,17.15
2019-02-08T14:06:20.565Z,12.07
2019-02-08T14:08:49.341Z,13.00
2019-02-08T14:11:18.549Z,13.20
2019-02-08T14:13:48.043Z,13.18
2019-02-08T14:16:16.688Z,16.97
2019-02-08T14:18:46.000Z,13.72
2019-02-08T14:21:15.472Z,14.85
2019-02-08T14:23:44.541Z,11.57
2019-02-08T14:26:13.782Z,14.33
2019-02-08T14:28:42.986Z,14.85
2019-02-08T14:31:12.025Z,16.70
2019-02-08T14:33:41.353Z,15.68
2019-02-08T14:36:11.029Z,12.95
2019-02-08T14:38:40.581Z,17.62
2019-02-08T14:41:14.376Z,15.10
2019-02-08T14:43:43.432Z,15.93
2019-02-08T14:46:13.161Z,16.37
2019-02-08T14:48:42.437Z,16.20
2019-02-08T14:51:11.801Z,17.37
2019-02-08T14:53:41.151Z,14.13
2019-02-08T14:56:10.346Z,13.43
2019-02-08T14:58:39.556Z,16.40
2019-02-08T15:01:08.822Z,11.90
2019-02-08T15:03:38.095Z,14.25
2019-02-08T15:06:07.112Z,17.07
2019-02-08T15:08:36.557Z,14.40
2019-02-08T15:11:07.057Z,16.37
2019-02-08T15:13:36.746Z,13.28
2019-02-08T15:16:07.085Z,14.28
2019-02-08T15:18:36.664Z,15.40
2019-02-08T15:21:05.916Z,17.60
2019-02-08T15:23:35.073Z,15.95
2019-02-08T15:26:04.225Z,13.05
2019-02-08T15:28:33.281Z,14.03
2019-02-08T15:31:02.480Z,14.85
2019-02-08T15:33:31.886Z,13.58
2019-02-08T15:36:00.753Z,19.70
2019-02-08T15:38:29.413Z,16.93
2019-02-08T15:40:58.380Z,17.67
2019-02-08T15:43:27.044Z,17.40
2019-02-08T15:45:58.218Z,14.68
2019-02-08T15:48:27.490Z,17.37
2019-02-08T15:50:56.752Z,16.05
2019-02-08T15:53:26.363Z,19.82
2019-02-08T15:56:01.352Z,17.20
2019-02-08T15:58:30.631Z,14.25
2019-02-08T16:01:00.377Z,14.95
2019-02-08T16:03:29.395Z,12.25
2019-02-08T16:05:58.728Z,15.13
2019-02-08T16:08:29.000Z,14.28
2019-02-08T16:10:59.181Z,16.12
2019-02-08T16:13:28.546Z,15.85
2019-02-08T16:15:58.033Z,17.70
2019-02-08T16:18:26.993Z,18.00
2019-02-08T16:20:56.319Z,23.47
2019-02-08T16:23:25.411Z,21.37
2019-02-08T16:25:54.724Z,24.98
2019-02-08T16:28:23.264Z,18.85
2019-02-08T16:30:52.488Z,18.00
2019-02-08T16:33:21.791Z,17.62
2019-02-08T16:35:51.103Z,17.52
2019-02-08T16:38:21.134Z,17.50
2019-02-08T16:40:50.485Z,13.88
2019-02-08T16:43:19.951Z,17.50
2019-02-08T16:45:49.119Z,15.20
2019-02-08T16:48:19.433Z,14.15
2019-02-08T16:50:48.749Z,13.15
2019-02-08T16:53:19.768Z,15.43
2019-02-08T16:55:49.787Z,19.12
2019-02-08T16:58:18.711Z,13.62
2019-02-08T17:00:47.989Z,14.30
2019-02-08T17:03:17.248Z,15.98
2019-02-08T17:05:46.527Z,14.28
2019-02-08T17:08:17.186Z,15.28
2019-02-08T17:10:46.433Z,16.77
2019-02-08T17:13:15.593Z,17.77
2019-02-08T17:15:45.869Z,16.35
2019-02-08T17:18:15.090Z,18.77
2019-02-08T17:20:49.512Z,16.85
2019-02-08T17:23:18.797Z,14.65
2019-02-08T17:25:48.424Z,15.58
2019-02-08T17:28:17.434Z,19.25
2019-02-08T17:30:46.621Z,14.47
2019-02-08T17:33:15.647Z,21.37
2019-02-08T17:35:45.847Z,15.65
2019-02-08T17:38:15.607Z,14.47
2019-02-08T17:40:47.232Z,16.75
2019-02-08T17:43:16.415Z,19.02
2019-02-08T17:45:45.754Z,13.15
2019-02-08T17:48:15.871Z,19.85
2019-02-08T17:50:44.533Z,17.60
2019-02-08T17:53:13.247Z,17.27
2019-02-08T17:55:43.278Z,18.70
2019-02-08T17:58:11.920Z,17.73
2019-02-08T18:00:44.368Z,19.65
2019-02-08T18:03:13.898Z,18.17
2019-02-08T18:05:42.865Z,15.65
2019-02-08T18:08:12.005Z,16.02
2019-02-08T18:10:41.259Z,23.47
2019-02-08T18:13:10.509Z,15.53
2019-02-08T18:15:39.900Z,14.43
2019-02-08T18:18:10.738Z,15.32
2019-02-08T18:20:42.572Z,17.25
2019-02-08T18:23:11.930Z,16.23
2019-02-08T18:25:41.270Z,18.75
2019-02-08T18:28:11.309Z,17.40
2019-02-08T18:30:40.885Z,18.10
2019-02-08T18:33:10.053Z,17.48
2019-02-08T18:35:39.346Z,17.40
2019-02-08T18:38:08.188Z,16.70
2019-02-08T18:40:36.997Z,17.30
2019-02-08T18:43:06.324Z,16.65
2019-02-08T18:45:37.185Z,17.65
2019-02-08T18:48:07.864Z,18.55
2019-02-08T18:50:43.067Z,19.75
2019-02-08T18:53:12.692Z,16.00
2019-02-08T18:55:41.862Z,17.95
2019-02-08T18:58:18.460Z,19.90
2019-02-08T19:00:47.934Z,19.75
2019-02-08T19:03:17.424Z,17.45
2019-02-08T19:05:46.711Z,22.07
2019-02-08T19:08:15.958Z,20.60
2019-02-08T19:10:45.201Z,20.30
2019-02-08T19:13:14.208Z,20.90
2019-02-08T19:15:43.152Z,19.85
2019-02-08T19:18:12.486Z,22.05
2019-02-08T19:20:42.086Z,19.20
2019-02-08T19:23:11.216Z,19.75
2019-02-08T19:25:43.615Z,18.67
2019-02-08T19:28:13.355Z,19.80
2019-02-08T19:30:43.507Z,19.42
2019-02-08T19:33:12.888Z,23.77
2019-02-08T19:35:44.120Z,22.80
2019-02-08T19:38:13.309Z,16.62
2019-02-08T19:40:45.609Z,17.92
2019-02-08T19:43:14.997Z,25.85
2019-02-08T19:45:47.369Z,20.10
2019-02-08T19:48:16.627Z,23.57
2019-02-08T19:50:47.513Z,19.30
2019-02-08T19:53:17.840Z,19.57
2019-02-08T19:55:46.999Z,19.00
2019-02-08T19:58:16.294Z,17.62
2019-02-08T20:00:45.459Z,24.32
2019-02-08T20:03:14.271Z,20.43
2019-02-08T20:05:43.140Z,18.05
2019-02-08T20:08:13.194Z,17.85
2019-02-08T20:10:44.631Z,20.43
2019-02-08T20:13:14.266Z,20.12
2019-02-08T20:15:43.708Z,16.77
2019-02-08T20:18:13.225Z,17.82
2019-02-08T20:20:42.058Z,17.35
2019-02-08T20:23:11.465Z,17.05
2019-02-08T20:25:40.705Z,20.60
2019-02-08T20:28:10.951Z,19.00
2019-02-08T20:30:40.312Z,22.65
2019-02-08T20:33:09.579Z,19.92
2019-02-08T20:35:38.830Z,21.00
2019-02-08T20:38:07.909Z,19.75
2019-02-08T20:40:39.339Z,20.00
2019-02-08T20:43:08.805Z,18.12
2019-02-08T20:45:38.149Z,18.42
2019-02-08T20:48:12.349Z,17.37
2019-02-08T20:50:41.163Z,17.52
2019-02-08T20:53:09.828Z,17.40
2019-02-08T20:55:38.804Z,18.85
2019-02-08T20:58:11.530Z,15.63
2019-02-08T21:00:43.122Z,17.40
2019-02-08T21:03:13.293Z,17.95
2019-02-08T21:05:43.508Z,18.37
2019-02-08T21:08:12.925Z,17.87
2019-02-08T21:10:42.718Z,16.85
2019-02-08T21:13:12.073Z,16.35
2019-02-08T21:15:41.695Z,14.43
2019-02-08T21:18:11.170Z,15.40
2019-02-08T21:20:40.969Z,15.95
2019-02-08T21:23:10.443Z,23.80
2019-02-08T21:25:40.524Z,15.20
2019-02-08T21:28:09.383Z,17.32
2019-02-08T21:30:38.169Z,14.73
2019-02-08T21:33:09.237Z,33.02
2019-02-08T21:35:37.997Z,16.50
2019-02-08T21:38:07.460Z,23.05
2019-02-08T21:40:36.308Z,16.32
2019-02-08T21:43:06.345Z,31.20
2019-02-08T21:45:43.587Z,18.07
2019-02-08T21:48:13.270Z,31.05
2019-02-08T21:50:42.670Z,24.02
2019-02-08T21:53:12.007Z,15.18
2019-02-08T21:55:41.245Z,16.85
2019-02-08T21:58:10.488Z,24.60
2019-02-08T22:00:41.581Z,18.77
2019-02-08T22:03:10.734Z,22.37
2019-02-08T22:05:42.900Z,27.17
2019-02-08T22:08:12.423Z,22.37
2019-02-08T22:10:41.545Z,22.58
2019-02-08T22:13:10.568Z,18.62
2019-02-08T22:15:43.799Z,17.25
2019-02-08T22:18:12.922Z,16.02
2019-02-08T22:20:41.609Z,23.07
2019-02-08T22:23:10.707Z,18.07
2019-02-08T22:25:40.686Z,18.75
2019-02-08T22:28:10.068Z,24.98
2019-02-08T22:30:39.811Z,17.62
2019-02-08T22:33:10.056Z,16.73
2019-02-08T22:35:39.356Z,18.30
2019-02-08T22:38:08.987Z,19.80
2019-02-08T22:40:38.725Z,16.05
2019-02-08T22:43:07.763Z,12.98
2019-02-08T22:45:38.180Z,18.57
2019-02-08T22:48:07.539Z,17.07
2019-02-08T22:50:37.614Z,21.80
2019-02-08T22:53:08.491Z,19.25
2019-02-08T22:55:37.954Z,18.62
2019-02-08T22:58:08.104Z,17.05
2019-02-08T23:00:43.100Z,15.60
2019-02-08T23:03:13.318Z,20.05
2019-02-08T23:05:45.617Z,20.23
2019-02-08T23:08:14.428Z,19.95
2019-02-08T23:10:43.590Z,18.52
2019-02-08T23:13:12.879Z,18.75
2019-02-08T23:15:42.187Z,18.98
2019-02-08T23:18:11.999Z,18.92
2019-02-08T23:20:41.375Z,21.50
2019-02-08T23:23:11.091Z,22.70
2019-02-08T23:25:40.228Z,23.00
2019-02-08T23:28:09.210Z,22.40
2019-02-08T23:30:38.551Z,18.87
2019-02-08T23:33:07.888Z,20.57
2019-02-08T23:35:43.124Z,26.17
2019-02-08T23:38:09.629Z,23.62
2019-02-08T23:40:38.885Z,22.65
2019-02-08T23:43:08.542Z,22.00
2019-02-08T23:45:39.569Z,27.80
2019-02-08T23:48:08.412Z,23.67
2019-02-08T23:50:37.160Z,24.25
2019-02-08T23:53:06.331Z,24.60
2019-02-08T23:55:36.007Z,24.85
2019-02-08T23:58:05.827Z,22.80
